Aiken, Texas
Current Conditions -  °F | °C
As of 12:15 PM on Tuesday 21 Oct 2014 (Local Time) from KPVW Reporting Station
Scattered Clouds Scattered Clouds  
Wind Chill: 21°   Ceiling: Unl
Heat Index: 21°   Visibility: 10mi
Dew Point: 12°   Wind: 7mph
Humidity: 56%   Direction: 180°S
Pressure: 30.13"   Gusts: NA
Location:  34.14°N, 101.53°W
Report Text: KPVW 211715Z AUTO 18006KT 10SM SCT039 SCT048 21/12 A3013 RMK AO2 T02110119
Loading
Personal Weather Stations






























Interactive Weather Map
Tropical Storm Tracking
New forecast layout! Learn more

10-Day Weather Forecast

Advertisements
Track Severe Weather on mobile